createdAt,value
2019-03-03T00:00:49.332Z,75.54
2019-03-03T00:03:27.067Z,76.37
2019-03-03T00:06:13.995Z,76.75
2019-03-03T00:08:43.059Z,77.77
2019-03-03T00:11:25.109Z,79.06
2019-03-03T00:14:01.425Z,80.60
2019-03-03T00:16:32.976Z,79.50
2019-03-03T00:19:29.380Z,79.01
2019-03-03T00:21:59.578Z,79.67
2019-03-03T00:24:39.932Z,79.90
2019-03-03T00:27:15.934Z,78.22
2019-03-03T00:29:53.911Z,79.79
2019-03-03T00:32:26.888Z,80.22
2019-03-03T00:35:00.342Z,78.91
2019-03-03T00:37:56.257Z,78.94
2019-03-03T00:40:45.394Z,79.30
2019-03-03T00:43:21.526Z,78.97
2019-03-03T00:46:27.980Z,78.93
2019-03-03T00:49:41.444Z,78.38
2019-03-03T00:52:37.528Z,80.14
2019-03-03T00:55:22.952Z,81.58
2019-03-03T00:58:13.927Z,80.78
2019-03-03T01:01:03.589Z,81.20
2019-03-03T01:03:59.772Z,79.73
2019-03-03T01:06:54.254Z,81.56
2019-03-03T01:09:46.571Z,79.37
2019-03-03T01:12:38.630Z,79.38
2019-03-03T01:15:31.004Z,81.39
2019-03-03T01:18:29.123Z,81.30
2019-03-03T01:21:40.799Z,80.14
2019-03-03T01:24:28.690Z,79.29
2019-03-03T01:27:09.532Z,80.46
2019-03-03T01:29:49.296Z,80.98
2019-03-03T01:32:18.367Z,81.47
2019-03-03T01:35:11.829Z,80.94
2019-03-03T01:37:44.163Z,82.15
2019-03-03T01:40:41.050Z,81.28
2019-03-03T01:43:23.892Z,82.00
2019-03-03T01:45:57.322Z,82.64
2019-03-03T01:48:38.700Z,82.45
2019-03-03T01:51:21.134Z,82.00
2019-03-03T01:53:51.990Z,81.45
2019-03-03T01:56:30.897Z,82.02
2019-03-03T01:59:00.483Z,81.19
2019-03-03T02:01:47.190Z,81.68
2019-03-03T02:04:20.515Z,81.14
2019-03-03T02:07:01.052Z,79.87
2019-03-03T02:09:37.800Z,79.48
2019-03-03T02:12:11.328Z,79.73
2019-03-03T02:14:57.606Z,79.43
2019-03-03T02:17:40.645Z,80.20
2019-03-03T02:20:12.379Z,79.51
2019-03-03T02:22:59.644Z,79.24
2019-03-03T02:25:34.170Z,79.17
2019-03-03T02:28:07.228Z,79.30
2019-03-03T02:30:44.254Z,79.41
2019-03-03T02:33:13.415Z,80.28
2019-03-03T02:35:49.260Z,80.78
2019-03-03T02:38:27.694Z,79.99
2019-03-03T02:41:04.177Z,79.26
2019-03-03T02:43:43.984Z,79.85
2019-03-03T02:46:16.504Z,79.40
2019-03-03T02:49:00.094Z,78.69
2019-03-03T02:51:32.085Z,79.00
2019-03-03T02:54:08.810Z,79.21
2019-03-03T02:56:41.484Z,78.92
2019-03-03T02:59:21.880Z,78.45
2019-03-03T03:01:59.907Z,78.01
2019-03-03T03:04:37.054Z,78.51
2019-03-03T03:07:29.832Z,78.50
2019-03-03T03:10:22.352Z,77.59
2019-03-03T03:13:02.586Z,79.69
2019-03-03T03:16:00.607Z,77.68
2019-03-03T03:18:54.159Z,77.71
2019-03-03T03:21:39.401Z,79.06
2019-03-03T03:24:31.565Z,77.94
2019-03-03T03:27:23.438Z,78.46
2019-03-03T03:30:40.373Z,79.00
2019-03-03T03:33:37.807Z,77.24
2019-03-03T03:36:40.494Z,77.03
2019-03-03T03:39:48.625Z,76.78
2019-03-03T03:42:26.024Z,77.17
2019-03-03T03:45:29.713Z,76.85
2019-03-03T03:48:27.954Z,77.47
2019-03-03T03:51:31.613Z,77.24
2019-03-03T03:54:21.218Z,77.25
2019-03-03T03:57:08.696Z,76.50
2019-03-03T04:00:02.267Z,76.94
2019-03-03T04:03:08.030Z,76.59
2019-03-03T04:06:03.190Z,77.07
2019-03-03T04:09:10.233Z,76.77
2019-03-03T04:11:59.833Z,76.58
2019-03-03T04:14:41.053Z,76.88
2019-03-03T04:17:42.350Z,76.46
2019-03-03T04:20:36.388Z,76.67
2019-03-03T04:23:28.187Z,77.06
2019-03-03T04:26:12.731Z,77.27
2019-03-03T04:29:01.300Z,78.68
2019-03-03T04:31:55.447Z,77.64
2019-03-03T04:34:52.925Z,78.26
2019-03-03T04:37:40.995Z,77.78
2019-03-03T04:40:17.576Z,77.92
2019-03-03T04:43:07.604Z,79.13
2019-03-03T04:45:44.133Z,78.52
2019-03-03T04:48:39.898Z,77.32
2019-03-03T04:51:34.255Z,78.15
2019-03-03T04:54:41.667Z,78.08
2019-03-03T04:57:39.415Z,79.71
2019-03-03T05:00:45.375Z,79.25
2019-03-03T05:03:28.912Z,79.65
2019-03-03T05:06:06.256Z,80.48
2019-03-03T05:08:49.555Z,81.09
2019-03-03T05:12:09.520Z,81.13
2019-03-03T05:14:50.414Z,81.15
2019-03-03T05:17:30.716Z,80.16
2019-03-03T05:20:01.096Z,82.18
2019-03-03T05:22:37.971Z,81.82
2019-03-03T05:25:07.524Z,81.14
2019-03-03T05:27:43.606Z,81.48
2019-03-03T05:30:13.525Z,81.89
2019-03-03T05:32:53.302Z,83.37
2019-03-03T05:35:26.746Z,82.43
2019-03-03T05:38:01.236Z,83.34
2019-03-03T05:40:35.361Z,82.90
2019-03-03T05:43:14.798Z,82.67
2019-03-03T05:45:56.696Z,82.90
2019-03-03T05:48:29.111Z,82.03
2019-03-03T05:51:01.266Z,82.91
2019-03-03T05:53:34.642Z,83.68
2019-03-03T05:56:09.737Z,84.58
2019-03-03T05:58:41.179Z,84.26
2019-03-03T06:01:17.575Z,83.61
2019-03-03T06:03:52.440Z,83.91
2019-03-03T06:06:21.715Z,83.83
2019-03-03T06:08:56.923Z,84.36
2019-03-03T06:11:30.331Z,84.95
2019-03-03T06:14:02.730Z,85.53
2019-03-03T06:16:40.078Z,85.34
2019-03-03T06:19:13.051Z,86.03
2019-03-03T06:21:42.470Z,85.33
2019-03-03T06:24:12.760Z,85.87
2019-03-03T06:26:44.701Z,86.15
2019-03-03T06:29:17.645Z,86.49
2019-03-03T06:31:49.334Z,86.32
2019-03-03T06:34:22.039Z,86.52
2019-03-03T06:36:59.204Z,86.16
2019-03-03T06:39:29.698Z,85.87
2019-03-03T06:41:58.933Z,85.72
2019-03-03T06:44:33.002Z,85.99
2019-03-03T06:47:02.230Z,85.80
2019-03-03T06:49:36.712Z,86.56
2019-03-03T06:52:05.719Z,86.31
2019-03-03T06:54:36.060Z,86.62
2019-03-03T06:57:09.386Z,86.36
2019-03-03T06:59:50.418Z,86.55
2019-03-03T07:02:19.427Z,86.32
2019-03-03T07:04:51.422Z,86.12
2019-03-03T07:07:24.468Z,86.06
2019-03-03T07:10:06.855Z,86.15
2019-03-03T07:12:48.456Z,86.44
2019-03-03T07:15:20.917Z,86.35
2019-03-03T07:17:51.192Z,86.53
2019-03-03T07:20:27.824Z,86.70
2019-03-03T07:23:06.823Z,86.75
2019-03-03T07:25:39.119Z,87.03
2019-03-03T07:28:17.242Z,87.14
2019-03-03T07:30:47.165Z,86.55
2019-03-03T07:33:31.973Z,87.07
2019-03-03T07:36:02.422Z,86.87
2019-03-03T07:38:38.911Z,87.00
2019-03-03T07:41:17.980Z,87.17
2019-03-03T07:43:47.379Z,87.19
2019-03-03T07:46:23.417Z,87.13
2019-03-03T07:48:59.888Z,87.25
2019-03-03T07:51:38.991Z,87.16
2019-03-03T07:54:10.951Z,86.94
2019-03-03T07:56:42.094Z,86.81
2019-03-03T07:59:18.057Z,86.96
2019-03-03T08:01:49.316Z,87.13
2019-03-03T08:04:32.047Z,87.28
2019-03-03T08:07:04.903Z,87.20
2019-03-03T08:09:34.016Z,87.52
2019-03-03T08:12:11.372Z,87.24
2019-03-03T08:14:40.600Z,87.47
2019-03-03T08:17:10.699Z,87.08
2019-03-03T08:19:42.223Z,87.05
2019-03-03T08:22:14.251Z,87.05
2019-03-03T08:24:45.170Z,86.70
2019-03-03T08:27:18.021Z,86.59
2019-03-03T08:29:55.595Z,86.85
2019-03-03T08:32:31.949Z,87.00
2019-03-03T08:35:03.387Z,86.56
2019-03-03T08:37:32.521Z,87.22
2019-03-03T08:40:11.864Z,87.18
2019-03-03T08:43:01.315Z,87.21
2019-03-03T08:45:43.064Z,87.31
2019-03-03T08:48:20.916Z,87.00
2019-03-03T08:50:58.312Z,86.91
2019-03-03T08:53:55.729Z,87.08
2019-03-03T08:57:06.299Z,87.53
2019-03-03T08:59:49.302Z,87.22
2019-03-03T09:02:30.599Z,87.35
2019-03-03T09:05:12.660Z,87.25
2019-03-03T09:08:19.820Z,86.76
2019-03-03T09:11:14.272Z,87.34
2019-03-03T09:14:05.251Z,87.44
2019-03-03T09:16:58.279Z,87.44
2019-03-03T09:20:02.936Z,87.12
2019-03-03T09:22:55.408Z,87.04
2019-03-03T09:25:57.095Z,86.92
2019-03-03T09:28:58.430Z,86.72
2019-03-03T09:32:08.367Z,86.80
2019-03-03T09:35:13.646Z,86.74
2019-03-03T09:38:14.166Z,86.72
2019-03-03T09:41:30.705Z,87.06
2019-03-03T09:44:19.235Z,87.24
2019-03-03T09:47:21.901Z,87.03
2019-03-03T09:50:14.326Z,86.94
2019-03-03T09:53:00.527Z,86.72
2019-03-03T09:55:58.370Z,86.84
2019-03-03T09:58:42.815Z,86.56
2019-03-03T10:01:40.288Z,87.00
2019-03-03T10:04:40.848Z,86.93
2019-03-03T10:07:37.820Z,87.53
2019-03-03T10:10:19.739Z,87.75
2019-03-03T10:13:11.845Z,87.62
2019-03-03T10:15:58.919Z,87.52
2019-03-03T10:18:39.944Z,87.44
2019-03-03T10:21:22.946Z,87.32
2019-03-03T10:24:34.734Z,87.29
2019-03-03T10:27:33.414Z,87.40
2019-03-03T10:30:25.460Z,87.43
2019-03-03T10:33:20.700Z,87.40
2019-03-03T10:36:29.421Z,87.27
2019-03-03T10:39:30.870Z,86.98
2019-03-03T10:42:24.022Z,87.01
2019-03-03T10:45:23.272Z,86.48
2019-03-03T10:48:11.495Z,85.52
2019-03-03T10:51:05.378Z,84.52
2019-03-03T10:53:55.528Z,83.81
2019-03-03T10:56:43.276Z,83.51
2019-03-03T10:59:43.149Z,83.32
2019-03-03T11:02:40.607Z,83.39
2019-03-03T11:05:56.671Z,83.78
2019-03-03T11:08:51.780Z,83.58
2019-03-03T11:11:40.360Z,83.83
2019-03-03T11:14:58.955Z,83.76
2019-03-03T11:17:50.206Z,83.51
2019-03-03T11:23:34.033Z,83.50
2019-03-03T11:26:37.721Z,83.53
2019-03-03T11:29:36.313Z,83.39
2019-03-03T11:32:36.686Z,83.90
2019-03-03T11:35:42.144Z,83.86
2019-03-03T11:38:43.517Z,84.34
2019-03-03T11:42:01.775Z,84.35
2019-03-03T11:45:08.815Z,84.32
2019-03-03T11:48:13.623Z,84.29
2019-03-03T11:51:27.466Z,84.34
2019-03-03T11:54:11.650Z,84.19
2019-03-03T11:57:41.754Z,84.39
2019-03-03T12:00:42.678Z,84.57
2019-03-03T12:03:43.630Z,84.60
2019-03-03T12:06:45.036Z,84.48
2019-03-03T12:09:35.083Z,84.53
2019-03-03T12:12:34.164Z,84.76
2019-03-03T12:15:31.007Z,84.52
2019-03-03T12:18:33.754Z,84.26
2019-03-03T12:21:15.043Z,84.55
2019-03-03T12:24:10.970Z,85.02
2019-03-03T12:27:07.780Z,85.01
2019-03-03T12:30:12.160Z,84.78
2019-03-03T12:33:05.347Z,85.37
2019-03-03T12:36:05.896Z,85.18
2019-03-03T12:38:54.788Z,85.57
2019-03-03T12:41:52.325Z,85.29
2019-03-03T12:44:38.192Z,85.46
2019-03-03T12:47:42.092Z,85.46
2019-03-03T12:50:51.835Z,85.39
2019-03-03T12:53:51.831Z,86.06
2019-03-03T12:56:54.743Z,85.70
2019-03-03T12:59:53.151Z,85.59
2019-03-03T13:06:07.278Z,85.42
2019-03-03T13:09:07.710Z,85.28
2019-03-03T13:12:10.811Z,85.21
2019-03-03T13:15:01.294Z,85.63
2019-03-03T13:18:05.365Z,85.06
2019-03-03T13:20:48.879Z,85.01
2019-03-03T13:23:34.365Z,84.86
2019-03-03T13:26:27.808Z,84.82
2019-03-03T13:29:18.839Z,85.01
2019-03-03T13:32:07.122Z,84.81
2019-03-03T13:35:06.068Z,84.66
2019-03-03T13:38:04.863Z,84.77
2019-03-03T13:40:45.247Z,84.58
2019-03-03T13:43:15.266Z,84.33
2019-03-03T13:45:48.345Z,84.83
2019-03-03T13:48:20.395Z,84.54
2019-03-03T13:50:52.409Z,84.68
2019-03-03T13:53:25.998Z,84.95
2019-03-03T13:56:01.180Z,84.65
2019-03-03T13:58:42.723Z,84.80
2019-03-03T14:01:20.580Z,84.83
2019-03-03T14:03:58.967Z,84.89
2019-03-03T14:06:29.363Z,84.82
2019-03-03T14:08:58.552Z,84.78
2019-03-03T14:11:35.405Z,84.71
2019-03-03T14:14:10.955Z,84.84
2019-03-03T14:16:46.851Z,84.82
2019-03-03T14:19:21.999Z,85.11
2019-03-03T14:22:02.736Z,85.03
2019-03-03T14:24:35.591Z,85.06
2019-03-03T14:27:10.518Z,85.49
2019-03-03T14:29:39.867Z,85.46
2019-03-03T14:32:10.004Z,85.69
2019-03-03T14:34:42.334Z,85.65
2019-03-03T14:37:11.643Z,85.71
2019-03-03T14:40:01.340Z,85.87
2019-03-03T14:42:36.578Z,85.84
2019-03-03T14:45:11.697Z,85.90
2019-03-03T14:47:57.438Z,85.85
2019-03-03T14:50:28.621Z,86.05
2019-03-03T14:53:00.472Z,86.07
2019-03-03T14:55:29.802Z,86.09
2019-03-03T14:58:09.033Z,86.00
2019-03-03T15:00:39.013Z,85.64
2019-03-03T15:03:13.725Z,85.22
2019-03-03T15:05:44.150Z,85.26
2019-03-03T15:08:17.719Z,85.35
2019-03-03T15:10:56.393Z,85.31
2019-03-03T15:13:38.003Z,85.17
2019-03-03T15:16:09.360Z,85.12
2019-03-03T15:18:43.052Z,84.94
2019-03-03T15:21:24.517Z,85.05
2019-03-03T15:23:46.899Z,85.14
2019-03-03T15:26:25.401Z,85.21
2019-03-03T15:28:56.841Z,85.18
2019-03-03T15:31:37.960Z,85.14
2019-03-03T15:34:06.732Z,85.37
2019-03-03T15:36:41.875Z,85.53
2019-03-03T15:39:16.824Z,85.65
2019-03-03T15:41:52.115Z,85.65
2019-03-03T15:45:04.940Z,85.88
2019-03-03T15:47:37.281Z,85.72
2019-03-03T15:50:10.462Z,86.04
2019-03-03T15:52:39.844Z,86.01
2019-03-03T15:55:10.874Z,86.05
2019-03-03T15:57:59.130Z,86.12
2019-03-03T16:00:32.011Z,86.21
2019-03-03T16:03:05.588Z,86.27
2019-03-03T16:05:34.775Z,86.32
2019-03-03T16:08:04.130Z,86.35
2019-03-03T16:10:41.016Z,86.29
2019-03-03T16:13:13.388Z,86.42
2019-03-03T16:15:42.828Z,86.68
2019-03-03T16:18:21.010Z,86.71
2019-03-03T16:20:57.392Z,86.58
2019-03-03T16:23:39.190Z,86.52
2019-03-03T16:26:08.585Z,86.42
2019-03-03T16:28:39.363Z,86.47
2019-03-03T16:31:13.974Z,86.75
2019-03-03T16:33:45.946Z,86.90
2019-03-03T16:36:25.190Z,86.92
2019-03-03T16:39:02.384Z,86.87
2019-03-03T16:41:43.121Z,86.97
2019-03-03T16:44:22.584Z,86.98
2019-03-03T16:46:53.182Z,86.92
2019-03-03T16:49:23.655Z,87.09
2019-03-03T16:52:07.988Z,87.22
2019-03-03T16:54:50.004Z,87.33
2019-03-03T16:57:22.060Z,87.63
2019-03-03T16:59:58.052Z,87.56
2019-03-03T17:02:27.315Z,87.54
2019-03-03T17:05:02.750Z,87.42
2019-03-03T17:07:34.215Z,87.28
2019-03-03T17:10:11.205Z,87.29
2019-03-03T17:12:41.817Z,87.26
2019-03-03T17:15:18.638Z,87.28
2019-03-03T17:17:50.806Z,87.28
2019-03-03T17:20:26.316Z,87.21
2019-03-03T17:23:08.111Z,87.23
2019-03-03T17:25:42.583Z,87.37
2019-03-03T17:28:12.588Z,87.85
2019-03-03T17:34:13.639Z,87.91
2019-03-03T17:36:45.872Z,88.64
2019-03-03T17:39:22.546Z,88.79
2019-03-03T17:41:57.581Z,88.78
2019-03-03T17:44:31.177Z,88.91
2019-03-03T17:47:03.898Z,89.02
2019-03-03T17:49:46.666Z,88.99
2019-03-03T17:52:21.241Z,89.07
2019-03-03T17:54:53.851Z,88.90
2019-03-03T17:57:43.573Z,89.40
2019-03-03T18:00:24.962Z,89.37
2019-03-03T18:02:56.969Z,89.37
2019-03-03T18:05:37.233Z,89.50
2019-03-03T18:08:35.016Z,89.25
2019-03-03T18:11:08.418Z,89.38
2019-03-03T18:13:43.267Z,89.39
2019-03-03T18:16:14.012Z,89.35
2019-03-03T18:18:58.870Z,89.37
2019-03-03T18:21:30.261Z,89.24
2019-03-03T18:24:03.288Z,89.35
2019-03-03T18:26:41.363Z,89.24
2019-03-03T18:29:12.438Z,89.50
2019-03-03T18:31:44.594Z,89.35
2019-03-03T18:34:18.350Z,89.29
2019-03-03T18:36:55.429Z,89.38
2019-03-03T18:39:32.451Z,89.30
2019-03-03T18:42:08.693Z,89.38
2019-03-03T18:44:46.711Z,89.19
2019-03-03T18:47:24.531Z,89.21
2019-03-03T18:50:37.726Z,88.98
2019-03-03T18:53:34.718Z,89.24
2019-03-03T18:56:08.814Z,89.46
2019-03-03T18:58:49.998Z,89.55
2019-03-03T19:01:28.359Z,89.45
2019-03-03T19:03:58.842Z,89.41
2019-03-03T19:06:41.880Z,89.50
2019-03-03T19:09:20.577Z,89.54
2019-03-03T19:11:58.005Z,89.41
2019-03-03T19:14:28.446Z,89.36
2019-03-03T19:17:06.059Z,89.51
2019-03-03T19:19:34.989Z,89.25
2019-03-03T19:22:12.359Z,89.33
2019-03-03T19:24:49.278Z,89.31
2019-03-03T19:27:19.870Z,89.26
2019-03-03T19:29:57.091Z,89.28
2019-03-03T19:32:29.399Z,89.31
2019-03-03T19:35:02.231Z,89.34
2019-03-03T19:37:35.739Z,89.25
2019-03-03T19:40:12.900Z,89.30
2019-03-03T19:42:46.780Z,89.35
2019-03-03T19:45:21.110Z,89.12
2019-03-03T19:47:53.655Z,89.24
2019-03-03T19:50:29.491Z,89.26
2019-03-03T19:53:04.712Z,89.44
2019-03-03T19:55:46.984Z,89.34
2019-03-03T19:58:16.136Z,89.58
2019-03-03T20:00:50.528Z,89.62
2019-03-03T20:03:34.328Z,89.62
2019-03-03T20:06:17.249Z,89.78
2019-03-03T20:08:49.158Z,89.81
2019-03-03T20:11:26.500Z,89.68
2019-03-03T20:14:10.253Z,89.77
2019-03-03T20:16:45.542Z,89.76
2019-03-03T20:19:23.366Z,89.68
2019-03-03T20:22:01.615Z,89.73
2019-03-03T20:24:39.041Z,89.71
2019-03-03T20:27:16.638Z,89.56
2019-03-03T20:29:45.630Z,89.25
2019-03-03T20:32:26.986Z,89.47
2019-03-03T20:35:01.558Z,89.52
2019-03-03T20:37:35.250Z,89.49
2019-03-03T20:40:11.020Z,89.56
2019-03-03T20:42:45.816Z,89.62
2019-03-03T20:45:28.034Z,89.56
2019-03-03T20:47:59.077Z,89.48
2019-03-03T20:50:32.119Z,89.50
2019-03-03T20:53:04.033Z,89.38
2019-03-03T20:55:38.735Z,89.51
2019-03-03T20:58:10.539Z,89.38
2019-03-03T21:00:54.908Z,89.40
2019-03-03T21:03:23.438Z,89.39
2019-03-03T21:06:05.498Z,89.27
2019-03-03T21:08:37.845Z,89.30
2019-03-03T21:11:16.015Z,89.18
2019-03-03T21:13:53.007Z,89.29
2019-03-03T21:16:29.902Z,89.37
2019-03-03T21:19:07.472Z,89.29
2019-03-03T21:21:38.684Z,89.37
2019-03-03T21:24:15.162Z,89.35
2019-03-03T21:26:50.856Z,89.40
2019-03-03T21:29:20.869Z,89.29
2019-03-03T21:31:54.312Z,89.24
2019-03-03T21:34:28.525Z,89.19
2019-03-03T21:37:04.017Z,89.23
2019-03-03T21:39:37.313Z,89.34
2019-03-03T21:42:18.535Z,89.29
2019-03-03T21:45:02.816Z,89.34
2019-03-03T21:47:34.051Z,89.25
2019-03-03T21:50:12.556Z,89.30
2019-03-03T21:52:44.214Z,89.27
2019-03-03T21:55:13.579Z,89.33
2019-03-03T21:57:44.926Z,89.15
2019-03-03T22:00:38.514Z,88.98
2019-03-03T22:03:17.526Z,89.00
2019-03-03T22:05:46.795Z,89.05
2019-03-03T22:08:27.071Z,88.97
2019-03-03T22:11:07.717Z,88.94
2019-03-03T22:13:44.908Z,88.87
2019-03-03T22:16:17.581Z,88.91
2019-03-03T22:18:48.878Z,88.74
2019-03-03T22:21:26.134Z,88.70
2019-03-03T22:24:02.939Z,88.71
2019-03-03T22:26:43.791Z,88.60
2019-03-03T22:29:25.214Z,88.56
2019-03-03T22:32:02.163Z,88.58
2019-03-03T22:34:36.668Z,88.72
2019-03-03T22:37:08.396Z,88.63
2019-03-03T22:39:37.586Z,88.66
2019-03-03T22:42:14.301Z,88.52
2019-03-03T22:44:44.739Z,88.44
2019-03-03T22:47:15.423Z,88.63
2019-03-03T22:49:48.379Z,88.79
2019-03-03T22:52:23.881Z,88.80
2019-03-03T22:55:05.586Z,88.75
2019-03-03T22:57:54.398Z,88.67
2019-03-03T23:00:49.151Z,88.55
2019-03-03T23:04:02.069Z,88.68
2019-03-03T23:06:51.100Z,88.61
2019-03-03T23:10:20.103Z,88.60
2019-03-03T23:13:46.598Z,88.66
2019-03-03T23:16:52.710Z,88.65
2019-03-03T23:20:15.815Z,88.71
2019-03-03T23:23:43.261Z,88.67
2019-03-03T23:26:16.496Z,88.64
2019-03-03T23:28:49.170Z,88.54
2019-03-03T23:31:26.574Z,88.46
2019-03-03T23:34:03.260Z,88.41
2019-03-03T23:36:43.434Z,88.34
2019-03-03T23:39:15.833Z,88.46
2019-03-03T23:41:49.024Z,88.41
2019-03-03T23:44:33.201Z,88.49
2019-03-03T23:47:10.450Z,88.40
2019-03-03T23:49:46.086Z,88.19
2019-03-03T23:52:19.335Z,87.96
2019-03-03T23:55:04.507Z,88.07
2019-03-03T23:57:38.157Z,88.11
